Selma, Oregon
Current Conditions -  °F | °C
As of 5:07 AM on Wednesday 22 Oct 2014 (Local Time) from KSXT Reporting Station
Overcast Overcast  
Wind Chill: 39°   Ceiling: 1400
Heat Index: 44°   Visibility: 10mi
Dew Point: 42°   Wind: 10mph
Humidity: 93%   Direction: 200°SSW
Pressure: 29.95"   Gusts: 20mph
Location:  42.28°N, 123.62°W
Report Text: KSXT 221207Z AUTO 20009G17KT 10SM OVC014 07/06 A2995 RMK AO2 T00670056
Loading
Personal Weather Stations






























Interactive Weather Map
Tropical Storm Tracking
New forecast layout! Learn more

10-Day Weather Forecast

Advertisements
Track Severe Weather on mobile